sensor_id;sensor_type;location;lat;lon;timestamp;pressure;altitude;pressure_sealevel;temperature;humidity
6030;BME280;3043;42.682;23.376;2023-02-17T00:01:19;95854.97;;;3.28;100.00
6030;BME280;3043;42.682;23.376;2023-02-17T00:03:45;95852.81;;;3.03;100.00
6030;BME280;3043;42.682;23.376;2023-02-17T00:06:15;95851.06;;;3.00;100.00
6030;BME280;3043;42.682;23.376;2023-02-17T00:08:41;95856.06;;;2.93;100.00
6030;BME280;3043;42.682;23.376;2023-02-17T00:11:06;95850.81;;;2.87;100.00
6030;BME280;3043;42.682;23.376;2023-02-17T00:13:35;95845.66;;;2.84;100.00
6030;BME280;3043;42.682;23.376;2023-02-17T00:16:15;95839.59;;;2.79;100.00
6030;BME280;3043;42.682;23.376;2023-02-17T00:18:41;95844.78;;;2.83;100.00
6030;BME280;3043;42.682;23.376;2023-02-17T00:21:15;95836.22;;;2.81;100.00
6030;BME280;3043;42.682;23.376;2023-02-17T00:23:42;95833.63;;;2.80;100.00
6030;BME280;3043;42.682;23.376;2023-02-17T00:26:07;95847.25;;;2.79;100.00
6030;BME280;3043;42.682;23.376;2023-02-17T00:28:33;95843.81;;;2.77;100.00
6030;BME280;3043;42.682;23.376;2023-02-17T00:30:58;95835.31;;;2.78;100.00
6030;BME280;3043;42.682;23.376;2023-02-17T00:33:24;95828.41;;;2.74;100.00
6030;BME280;3043;42.682;23.376;2023-02-17T00:35:49;95823.25;;;2.71;100.00
6030;BME280;3043;42.682;23.376;2023-02-17T00:38:15;95816.47;;;2.73;100.00
6030;BME280;3043;42.682;23.376;2023-02-17T00:40:40;95825.00;;;2.72;100.00
6030;BME280;3043;42.682;23.376;2023-02-17T00:43:06;95824.13;;;2.71;100.00
6030;BME280;3043;42.682;23.376;2023-02-17T00:45:32;95820.00;;;2.78;100.00
6030;BME280;3043;42.682;23.376;2023-02-17T00:47:58;95828.53;;;2.80;100.00
6030;BME280;3043;42.682;23.376;2023-02-17T00:50:23;95827.81;;;2.87;100.00
6030;BME280;3043;42.682;23.376;2023-02-17T00:52:48;95835.31;;;2.78;100.00
6030;BME280;3043;42.682;23.376;2023-02-17T00:55:14;95829.81;;;2.57;100.00
6030;BME280;3043;42.682;23.376;2023-02-17T00:57:39;95832.16;;;2.48;100.00
6030;BME280;3043;42.682;23.376;2023-02-17T01:00:05;95835.47;;;2.42;100.00
6030;BME280;3043;42.682;23.376;2023-02-17T01:02:31;95823.53;;;2.41;100.00
6030;BME280;3043;42.682;23.376;2023-02-17T01:04:57;95830.56;;;2.10;100.00
6030;BME280;3043;42.682;23.376;2023-02-17T01:07:22;95823.81;;;2.13;100.00
6030;BME280;3043;42.682;23.376;2023-02-17T01:09:47;95822.13;;;2.14;100.00
6030;BME280;3043;42.682;23.376;2023-02-17T01:12:13;95823.19;;;2.23;100.00
6030;BME280;3043;42.682;23.376;2023-02-17T01:14:38;95817.28;;;2.26;100.00
6030;BME280;3043;42.682;23.376;2023-02-17T01:17:04;95806.88;;;2.17;100.00
6030;BME280;3043;42.682;23.376;2023-02-17T01:19:29;95811.72;;;2.05;100.00
6030;BME280;3043;42.682;23.376;2023-02-17T01:21:55;95809.78;;;1.93;100.00
6030;BME280;3043;42.682;23.376;2023-02-17T01:24:20;95807.91;;;1.84;100.00
6030;BME280;3043;42.682;23.376;2023-02-17T01:26:46;95798.50;;;1.82;100.00
6030;BME280;3043;42.682;23.376;2023-02-17T01:29:11;95795.84;;;1.77;100.00
6030;BME280;3043;42.682;23.376;2023-02-17T01:31:38;95807.56;;;1.69;100.00
6030;BME280;3043;42.682;23.376;2023-02-17T01:34:04;95801.16;;;1.87;100.00
6030;BME280;3043;42.682;23.376;2023-02-17T01:36:30;95803.41;;;1.73;100.00
6030;BME280;3043;42.682;23.376;2023-02-17T01:38:55;95806.69;;;1.69;100.00
6030;BME280;3043;42.682;23.376;2023-02-17T01:41:23;95806.53;;;1.24;100.00
6030;BME280;3043;42.682;23.376;2023-02-17T01:46:35;95817.63;;;0.60;100.00
6030;BME280;3043;42.682;23.376;2023-02-17T01:49:02;95804.97;;;0.30;100.00
6030;BME280;3043;42.682;23.376;2023-02-17T01:51:33;95812.69;;;0.33;100.00
6030;BME280;3043;42.682;23.376;2023-02-17T01:54:15;95820.03;;;0.23;100.00
6030;BME280;3043;42.682;23.376;2023-02-17T01:56:45;95822.63;;;0.24;100.00
6030;BME280;3043;42.682;23.376;2023-02-17T01:59:17;95822.78;;;0.30;100.00
6030;BME280;3043;42.682;23.376;2023-02-17T02:01:45;95815.81;;;0.25;100.00
6030;BME280;3043;42.682;23.376;2023-02-17T02:04:11;95810.72;;;0.54;100.00
6030;BME280;3043;42.682;23.376;2023-02-17T02:06:39;95813.81;;;0.75;100.00
6030;BME280;3043;42.682;23.376;2023-02-17T02:09:18;95803.09;;;0.88;100.00
6030;BME280;3043;42.682;23.376;2023-02-17T02:11:49;95791.53;;;1.02;100.00
6030;BME280;3043;42.682;23.376;2023-02-17T02:14:15;95786.84;;;1.19;100.00
6030;BME280;3043;42.682;23.376;2023-02-17T02:17:34;95782.75;;;1.25;100.00
6030;BME280;3043;42.682;23.376;2023-02-17T02:20:02;95798.19;;;1.31;100.00
6030;BME280;3043;42.682;23.376;2023-02-17T02:30:58;95795.53;;;1.27;100.00
6030;BME280;3043;42.682;23.376;2023-02-17T02:33:32;95796.28;;;1.21;100.00
6030;BME280;3043;42.682;23.376;2023-02-17T02:36:11;95795.72;;;1.00;100.00
6030;BME280;3043;42.682;23.376;2023-02-17T02:44:23;95797.00;;;1.17;100.00
6030;BME280;3043;42.682;23.376;2023-02-17T02:47:03;95799.72;;;1.25;100.00
6030;BME280;3043;42.682;23.376;2023-02-17T02:49:29;95791.94;;;1.19;100.00
6030;BME280;3043;42.682;23.376;2023-02-17T02:58:39;95800.56;;;1.59;100.00
6030;BME280;3043;42.682;23.376;2023-02-17T03:01:49;95802.41;;;1.66;100.00
6030;BME280;3043;42.682;23.376;2023-02-17T03:04:27;95794.16;;;1.79;100.00
6030;BME280;3043;42.682;23.376;2023-02-17T03:07:21;95811.38;;;1.88;100.00
6030;BME280;3043;42.682;23.376;2023-02-17T03:09:53;95802.22;;;1.99;100.00
6030;BME280;3043;42.682;23.376;2023-02-17T03:12:20;95802.25;;;2.01;100.00
6030;BME280;3043;42.682;23.376;2023-02-17T03:14:53;95796.53;;;2.11;100.00
6030;BME280;3043;42.682;23.376;2023-02-17T03:17:22;95790.78;;;2.22;100.00
6030;BME280;3043;42.682;23.376;2023-02-17T03:19:47;95796.97;;;2.32;100.00
6030;BME280;3043;42.682;23.376;2023-02-17T03:22:40;95795.41;;;2.40;100.00
6030;BME280;3043;42.682;23.376;2023-02-17T03:25:05;95807.53;;;2.50;100.00
6030;BME280;3043;42.682;23.376;2023-02-17T03:27:31;95797.41;;;2.56;100.00
6030;BME280;3043;42.682;23.376;2023-02-17T03:29:56;95809.38;;;2.57;100.00
6030;BME280;3043;42.682;23.376;2023-02-17T03:32:22;95806.59;;;2.46;100.00
6030;BME280;3043;42.682;23.376;2023-02-17T03:34:47;95799.00;;;2.51;100.00
6030;BME280;3043;42.682;23.376;2023-02-17T03:37:13;95801.19;;;2.31;100.00
6030;BME280;3043;42.682;23.376;2023-02-17T03:39:38;95804.41;;;2.21;100.00
6030;BME280;3043;42.682;23.376;2023-02-17T03:42:04;95804.22;;;2.12;100.00
6030;BME280;3043;42.682;23.376;2023-02-17T03:44:29;95796.59;;;2.14;100.00
6030;BME280;3043;42.682;23.376;2023-02-17T03:46:54;95798.38;;;2.18;100.00
6030;BME280;3043;42.682;23.376;2023-02-17T03:49:20;95789.88;;;2.17;100.00
6030;BME280;3043;42.682;23.376;2023-02-17T03:51:45;95794.09;;;2.17;100.00
6030;BME280;3043;42.682;23.376;2023-02-17T03:54:11;95796.28;;;1.99;100.00
6030;BME280;3043;42.682;23.376;2023-02-17T03:56:37;95796.16;;;1.93;100.00
6030;BME280;3043;42.682;23.376;2023-02-17T03:59:02;95797.75;;;1.88;100.00
6030;BME280;3043;42.682;23.376;2023-02-17T04:01:28;95795.78;;;1.74;100.00
6030;BME280;3043;42.682;23.376;2023-02-17T04:03:53;95796.03;;;1.87;100.00
6030;BME280;3043;42.682;23.376;2023-02-17T04:06:19;95801.72;;;1.75;100.00
6030;BME280;3043;42.682;23.376;2023-02-17T04:08:44;95807.03;;;1.84;100.00
6030;BME280;3043;42.682;23.376;2023-02-17T04:11:10;95802.53;;;1.72;100.00
6030;BME280;3043;42.682;23.376;2023-02-17T04:13:36;95801.16;;;1.87;100.00
6030;BME280;3043;42.682;23.376;2023-02-17T04:16:03;95792.59;;;1.84;100.00
6030;BME280;3043;42.682;23.376;2023-02-17T04:18:30;95796.09;;;1.90;100.00
6030;BME280;3043;42.682;23.376;2023-02-17T04:20:56;95798.63;;;1.88;100.00
6030;BME280;3043;42.682;23.376;2023-02-17T04:23:22;95799.47;;;1.88;100.00
6030;BME280;3043;42.682;23.376;2023-02-17T04:25:47;95797.81;;;1.91;100.00
6030;BME280;3043;42.682;23.376;2023-02-17T04:28:14;95803.91;;;1.97;100.00
6030;BME280;3043;42.682;23.376;2023-02-17T04:30:45;95809.94;;;2.01;100.00
6030;BME280;3043;42.682;23.376;2023-02-17T04:33:11;95798.59;;;1.87;100.00
6030;BME280;3043;42.682;23.376;2023-02-17T04:35:37;95794.34;;;1.88;100.00
6030;BME280;3043;42.682;23.376;2023-02-17T04:38:03;95797.81;;;1.91;100.00
6030;BME280;3043;42.682;23.376;2023-02-17T04:40:29;95799.28;;;1.79;100.00
6030;BME280;3043;42.682;23.376;2023-02-17T04:42:54;95795.91;;;1.80;100.00
6030;BME280;3043;42.682;23.376;2023-02-17T04:45:21;95795.78;;;1.74;100.00
6030;BME280;3043;42.682;23.376;2023-02-17T04:47:46;95795.03;;;1.80;100.00
6030;BME280;3043;42.682;23.376;2023-02-17T04:50:11;95795.13;;;1.84;100.00
6030;BME280;3043;42.682;23.376;2023-02-17T04:52:37;95793.28;;;1.77;100.00
6030;BME280;3043;42.682;23.376;2023-02-17T04:55:03;95799.34;;;1.82;100.00
6030;BME280;3043;42.682;23.376;2023-02-17T04:57:29;95796.09;;;1.90;100.00
6030;BME280;3043;42.682;23.376;2023-02-17T04:59:55;95801.41;;;1.99;100.00
6030;BME280;3043;42.682;23.376;2023-02-17T05:02:20;95812.19;;;1.87;100.00
6030;BME280;3043;42.682;23.376;2023-02-17T05:04:46;95812.47;;;1.60;100.00
6030;BME280;3043;42.682;23.376;2023-02-17T05:07:12;95812.66;;;1.69;100.00
6030;BME280;3043;42.682;23.376;2023-02-17T05:09:38;95819.34;;;1.64;100.00
6030;BME280;3043;42.682;23.376;2023-02-17T05:12:03;95816.06;;;1.68;100.00
6030;BME280;3043;42.682;23.376;2023-02-17T05:14:30;95826.41;;;1.74;100.00
6030;BME280;3043;42.682;23.376;2023-02-17T05:16:56;95818.97;;;1.85;100.00
6030;BME280;3043;42.682;23.376;2023-02-17T05:19:21;95833.69;;;1.97;100.00
6030;BME280;3043;42.682;23.376;2023-02-17T05:21:47;95843.88;;;1.97;100.00
6030;BME280;3043;42.682;23.376;2023-02-17T05:24:12;95825.59;;;2.16;100.00
6030;BME280;3043;42.682;23.376;2023-02-17T05:26:38;95839.22;;;2.18;100.00
6030;BME280;3043;42.682;23.376;2023-02-17T05:29:03;95834.25;;;2.24;100.00
6030;BME280;3043;42.682;23.376;2023-02-17T05:31:29;95825.31;;;2.45;100.00
6030;BME280;3043;42.682;23.376;2023-02-17T05:33:54;95827.78;;;2.41;100.00
6030;BME280;3043;42.682;23.376;2023-02-17T05:36:20;95840.69;;;2.48;100.00
6030;BME280;3043;42.682;23.376;2023-02-17T05:38:48;95829.72;;;2.54;100.00
6030;BME280;3043;42.682;23.376;2023-02-17T05:41:15;95833.59;;;2.77;100.00
6030;BME280;3043;42.682;23.376;2023-02-17T05:43:41;95853.31;;;2.84;100.00
6030;BME280;3043;42.682;23.376;2023-02-17T05:46:06;95850.88;;;2.90;100.00
6030;BME280;3043;42.682;23.376;2023-02-17T05:48:32;95849.94;;;2.85;100.00
6030;BME280;3043;42.682;23.376;2023-02-17T05:50:58;95853.75;;;3.08;100.00
6030;BME280;3043;42.682;23.376;2023-02-17T05:53:24;95859.03;;;3.17;100.00
6030;BME280;3043;42.682;23.376;2023-02-17T05:55:50;95851.41;;;3.20;100.00
6030;BME280;3043;42.682;23.376;2023-02-17T05:58:15;95859.31;;;3.33;100.00
6030;BME280;3043;42.682;23.376;2023-02-17T06:00:40;95863.75;;;3.45;100.00
6030;BME280;3043;42.682;23.376;2023-02-17T06:03:06;95862.25;;;3.57;100.00
6030;BME280;3043;42.682;23.376;2023-02-17T06:05:31;95855.88;;;3.85;100.00
6030;BME280;3043;42.682;23.376;2023-02-17T06:07:57;95864.69;;;4.05;100.00
6030;BME280;3043;42.682;23.376;2023-02-17T06:10:22;95869.31;;;4.32;100.00
6030;BME280;3043;42.682;23.376;2023-02-17T06:12:48;95869.94;;;4.80;100.00
6030;BME280;3043;42.682;23.376;2023-02-17T06:15:14;95869.66;;;5.39;100.00
6030;BME280;3043;42.682;23.376;2023-02-17T06:17:39;95869.28;;;5.93;100.00
6030;BME280;3043;42.682;23.376;2023-02-17T06:20:06;95874.63;;;6.26;100.00
6030;BME280;3043;42.682;23.376;2023-02-17T06:22:32;95871.31;;;6.41;100.00
6030;BME280;3043;42.682;23.376;2023-02-17T06:24:57;95866.25;;;6.62;100.00
6030;BME280;3043;42.682;23.376;2023-02-17T06:27:23;95877.50;;;6.79;100.00
6030;BME280;3043;42.682;23.376;2023-02-17T06:29:48;95870.59;;;6.75;100.00
6030;BME280;3043;42.682;23.376;2023-02-17T06:32:14;95877.53;;;6.88;100.00
6030;BME280;3043;42.682;23.376;2023-02-17T06:34:39;95888.78;;;7.28;100.00
6030;BME280;3043;42.682;23.376;2023-02-17T06:37:05;95882.81;;;7.96;100.00
6030;BME280;3043;42.682;23.376;2023-02-17T06:39:30;95883.59;;;8.57;100.00
6030;BME280;3043;42.682;23.376;2023-02-17T06:41:55;95882.31;;;9.50;97.64
6030;BME280;3043;42.682;23.376;2023-02-17T06:44:21;95885.63;;;9.73;88.67
6030;BME280;3043;42.682;23.376;2023-02-17T06:46:46;95893.59;;;10.50;85.50
6030;BME280;3043;42.682;23.376;2023-02-17T06:49:12;95896.16;;;10.51;82.18
6030;BME280;3043;42.682;23.376;2023-02-17T06:51:38;95887.78;;;11.07;78.13
6030;BME280;3043;42.682;23.376;2023-02-17T06:54:04;95883.25;;;11.23;73.52
6030;BME280;3043;42.682;23.376;2023-02-17T06:56:30;95892.47;;;10.76;74.33
6030;BME280;3043;42.682;23.376;2023-02-17T06:58:55;95889.72;;;10.90;76.07
6030;BME280;3043;42.682;23.376;2023-02-17T07:01:24;95901.28;;;11.33;74.31
6030;BME280;3043;42.682;23.376;2023-02-17T07:03:51;95895.22;;;11.93;72.32
6030;BME280;3043;42.682;23.376;2023-02-17T07:06:16;95897.38;;;12.71;69.01
6030;BME280;3043;42.682;23.376;2023-02-17T07:08:42;95898.31;;;13.14;64.26
6030;BME280;3043;42.682;23.376;2023-02-17T07:11:09;95898.09;;;13.64;57.02
6030;BME280;3043;42.682;23.376;2023-02-17T07:13:35;95901.56;;;13.22;59.73
6030;BME280;3043;42.682;23.376;2023-02-17T07:16:00;95904.22;;;13.60;59.90
6030;BME280;3043;42.682;23.376;2023-02-17T07:18:26;95897.88;;;14.11;56.70
6030;BME280;3043;42.682;23.376;2023-02-17T07:20:51;95901.06;;;14.57;53.76
6030;BME280;3043;42.682;23.376;2023-02-17T07:23:17;95896.59;;;14.94;50.93
6030;BME280;3043;42.682;23.376;2023-02-17T07:25:43;95909.91;;;15.75;48.71
6030;BME280;3043;42.682;23.376;2023-02-17T07:28:08;95902.38;;;16.22;46.97
6030;BME280;3043;42.682;23.376;2023-02-17T07:30:37;95907.88;;;16.40;45.37
6030;BME280;3043;42.682;23.376;2023-02-17T07:33:03;95903.91;;;16.81;42.95
6030;BME280;3043;42.682;23.376;2023-02-17T07:35:29;95907.34;;;16.83;43.29
6030;BME280;3043;42.682;23.376;2023-02-17T07:37:56;95903.59;;;16.90;43.45
6030;BME280;3043;42.682;23.376;2023-02-17T07:40:22;95909.50;;;17.44;41.87
6030;BME280;3043;42.682;23.376;2023-02-17T07:42:47;95920.34;;;17.81;41.56
6030;BME280;3043;42.682;23.376;2023-02-17T07:45:13;95917.13;;;17.96;40.01
6030;BME280;3043;42.682;23.376;2023-02-17T07:47:38;95903.44;;;18.96;38.61
6030;BME280;3043;42.682;23.376;2023-02-17T07:50:04;95907.28;;;18.67;38.74
6030;BME280;3043;42.682;23.376;2023-02-17T07:52:30;95902.72;;;19.53;37.14
6030;BME280;3043;42.682;23.376;2023-02-17T07:54:55;95901.22;;;19.47;36.82
6030;BME280;3043;42.682;23.376;2023-02-17T07:57:20;95898.25;;;19.55;36.87
6030;BME280;3043;42.682;23.376;2023-02-17T07:59:46;95904.22;;;19.58;36.65
6030;BME280;3043;42.682;23.376;2023-02-17T08:02:12;95908.16;;;20.59;35.12
6030;BME280;3043;42.682;23.376;2023-02-17T08:04:37;95902.53;;;19.76;35.55
6030;BME280;3043;42.682;23.376;2023-02-17T08:07:03;95913.88;;;19.95;35.35
6030;BME280;3043;42.682;23.376;2023-02-17T08:09:28;95897.16;;;20.16;35.48
6030;BME280;3043;42.682;23.376;2023-02-17T08:12:17;95907.53;;;20.19;37.44
6030;BME280;3043;42.682;23.376;2023-02-17T08:15:02;95904.03;;;20.00;40.96
6030;BME280;3043;42.682;23.376;2023-02-17T08:17:28;95910.19;;;20.36;34.98
6030;BME280;3043;42.682;23.376;2023-02-17T08:19:54;95896.44;;;20.83;34.80
6030;BME280;3043;42.682;23.376;2023-02-17T08:22:19;95901.94;;;21.30;33.33
6030;BME280;3043;42.682;23.376;2023-02-17T08:24:45;95901.56;;;21.70;33.07
6030;BME280;3043;42.682;23.376;2023-02-17T08:27:12;95904.88;;;22.06;32.13
6030;BME280;3043;42.682;23.376;2023-02-17T08:29:38;95901.81;;;20.63;33.82
6030;BME280;3043;42.682;23.376;2023-02-17T08:32:03;95902.56;;;21.18;34.72
6030;BME280;3043;42.682;23.376;2023-02-17T08:34:29;95902.03;;;21.61;32.73
6030;BME280;3043;42.682;23.376;2023-02-17T08:36:58;95891.91;;;21.86;32.41
6030;BME280;3043;42.682;23.376;2023-02-17T08:39:24;95899.56;;;21.75;32.33
6030;BME280;3043;42.682;23.376;2023-02-17T08:41:51;95891.91;;;22.48;31.34
6030;BME280;3043;42.682;23.376;2023-02-17T08:44:18;95888.22;;;22.52;31.45
6030;BME280;3043;42.682;23.376;2023-02-17T08:46:45;95881.06;;;22.23;30.99
6030;BME280;3043;42.682;23.376;2023-02-17T08:49:13;95884.28;;;22.59;31.29
6030;BME280;3043;42.682;23.376;2023-02-17T08:51:39;95886.69;;;23.08;31.45
6030;BME280;3043;42.682;23.376;2023-02-17T08:54:06;95886.69;;;23.08;31.23
6030;BME280;3043;42.682;23.376;2023-02-17T08:56:33;95899.38;;;22.87;30.77
6030;BME280;3043;42.682;23.376;2023-02-17T08:58:58;95894.75;;;23.50;30.11
6030;BME280;3043;42.682;23.376;2023-02-17T09:01:24;95894.00;;;23.62;29.88
6030;BME280;3043;42.682;23.376;2023-02-17T09:03:51;95893.31;;;23.30;30.21
6030;BME280;3043;42.682;23.376;2023-02-17T09:06:19;95886.09;;;23.76;29.84
6030;BME280;3043;42.682;23.376;2023-02-17T09:08:45;95882.28;;;24.08;28.63
6030;BME280;3043;42.682;23.376;2023-02-17T09:11:11;95883.25;;;23.65;29.49
6030;BME280;3043;42.682;23.376;2023-02-17T09:13:39;95883.53;;;23.74;29.12
6030;BME280;3043;42.682;23.376;2023-02-17T09:16:05;95878.72;;;23.53;29.51
6030;BME280;3043;42.682;23.376;2023-02-17T09:18:30;95877.94;;;23.51;29.43
6030;BME280;3043;42.682;23.376;2023-02-17T09:20:56;95877.78;;;23.96;28.94
6030;BME280;3043;42.682;23.376;2023-02-17T09:23:22;95870.03;;;23.07;29.84
6030;BME280;3043;42.682;23.376;2023-02-17T09:25:48;95875.34;;;22.92;29.85
6030;BME280;3043;42.682;23.376;2023-02-17T09:28:13;95879.72;;;21.51;31.38
6030;BME280;3043;42.682;23.376;2023-02-17T09:30:39;95882.59;;;20.97;32.12
6030;BME280;3043;42.682;23.376;2023-02-17T09:33:05;95872.84;;;21.16;31.76
6030;BME280;3043;42.682;23.376;2023-02-17T09:35:32;95872.97;;;20.79;32.22
6030;BME280;3043;42.682;23.376;2023-02-17T09:37:57;95859.03;;;20.43;32.96
6030;BME280;3043;42.682;23.376;2023-02-17T09:40:44;95868.09;;;20.19;33.29
6030;BME280;3043;42.682;23.376;2023-02-17T09:43:16;95860.25;;;20.53;32.91
6030;BME280;3043;42.682;23.376;2023-02-17T09:45:48;95864.25;;;20.61;32.89
6030;BME280;3043;42.682;23.376;2023-02-17T09:48:18;95856.91;;;21.35;32.66
6030;BME280;3043;42.682;23.376;2023-02-17T09:50:57;95854.84;;;21.89;31.34
6030;BME280;3043;42.682;23.376;2023-02-17T09:55:54;95851.00;;;22.87;27.55
6030;BME280;3043;42.682;23.376;2023-02-17T09:58:25;95843.63;;;22.32;26.99
6030;BME280;3043;42.682;23.376;2023-02-17T10:00:57;95846.34;;;22.31;27.52
6030;BME280;3043;42.682;23.376;2023-02-17T10:03:46;95844.13;;;21.77;27.64
6030;BME280;3043;42.682;23.376;2023-02-17T10:06:36;95849.09;;;21.33;28.00
6030;BME280;3043;42.682;23.376;2023-02-17T10:09:06;95837.59;;;21.99;27.07
6030;BME280;3043;42.682;23.376;2023-02-17T10:11:39;95825.31;;;21.67;27.93
6030;BME280;3043;42.682;23.376;2023-02-17T10:14:44;95834.88;;;21.20;27.99
6030;BME280;3043;42.682;23.376;2023-02-17T10:22:32;95832.06;;;21.88;27.84
6030;BME280;3043;42.682;23.376;2023-02-17T10:24:59;95824.06;;;21.74;27.59
6030;BME280;3043;42.682;23.376;2023-02-17T10:30:32;95815.09;;;22.39;26.90
6030;BME280;3043;42.682;23.376;2023-02-17T10:35:52;95810.97;;;21.07;27.38
6030;BME280;3043;42.682;23.376;2023-02-17T10:40:54;95798.50;;;20.94;28.38
6030;BME280;3043;42.682;23.376;2023-02-17T10:43:23;95801.03;;;21.45;27.50
6030;BME280;3043;42.682;23.376;2023-02-17T10:45:51;95796.53;;;20.99;27.88
6030;BME280;3043;42.682;23.376;2023-02-17T10:48:21;95790.41;;;20.98;27.86
6030;BME280;3043;42.682;23.376;2023-02-17T10:50:48;95788.75;;;21.13;27.13
6030;BME280;3043;42.682;23.376;2023-02-17T10:53:19;95792.13;;;21.15;27.63
6030;BME280;3043;42.682;23.376;2023-02-17T10:56:26;95789.38;;;21.34;27.23
6030;BME280;3043;42.682;23.376;2023-02-17T11:01:16;95787.28;;;21.40;27.00
6030;BME280;3043;42.682;23.376;2023-02-17T11:03:41;95784.03;;;21.35;27.33
6030;BME280;3043;42.682;23.376;2023-02-17T11:06:20;95787.66;;;21.17;27.45
6030;BME280;3043;42.682;23.376;2023-02-17T11:08:53;95773.38;;;20.88;27.58
6030;BME280;3043;42.682;23.376;2023-02-17T11:11:22;95783.34;;;20.48;27.98
6030;BME280;3043;42.682;23.376;2023-02-17T11:14:18;95789.16;;;20.54;28.74
6030;BME280;3043;42.682;23.376;2023-02-17T11:16:50;95780.28;;;20.40;28.54
6030;BME280;3043;42.682;23.376;2023-02-17T11:19:26;95775.47;;;20.48;27.91
6030;BME280;3043;42.682;23.376;2023-02-17T11:21:54;95768.50;;;20.81;27.80
6030;BME280;3043;42.682;23.376;2023-02-17T11:24:20;95767.81;;;20.60;28.00
6030;BME280;3043;42.682;23.376;2023-02-17T11:29:26;95782.25;;;19.45;28.03
6030;BME280;3043;42.682;23.376;2023-02-17T11:31:57;95765.50;;;18.90;28.85
6030;BME280;3043;42.682;23.376;2023-02-17T11:34:26;95762.69;;;18.56;29.37
6030;BME280;3043;42.682;23.376;2023-02-17T11:37:20;95764.44;;;18.76;29.45
6030;BME280;3043;42.682;23.376;2023-02-17T11:39:49;95756.19;;;19.03;29.19
6030;BME280;3043;42.682;23.376;2023-02-17T11:44:41;95752.22;;;19.13;28.99
6030;BME280;3043;42.682;23.376;2023-02-17T11:47:37;95759.28;;;19.11;29.40
6030;BME280;3043;42.682;23.376;2023-02-17T11:50:26;95753.06;;;18.75;30.22
6030;BME280;3043;42.682;23.376;2023-02-17T11:53:20;95748.25;;;18.66;30.28
6030;BME280;3043;42.682;23.376;2023-02-17T11:56:02;95745.31;;;18.92;30.21
6030;BME280;3043;42.682;23.376;2023-02-17T11:59:11;95735.50;;;18.77;30.35
6030;BME280;3043;42.682;23.376;2023-02-17T12:04:27;95738.16;;;18.37;31.11
6030;BME280;3043;42.682;23.376;2023-02-17T12:07:20;95735.13;;;18.46;30.99
6030;BME280;3043;42.682;23.376;2023-02-17T12:17:54;95717.69;;;18.25;31.39
6030;BME280;3043;42.682;23.376;2023-02-17T12:20:36;95719.69;;;18.40;31.27
6030;BME280;3043;42.682;23.376;2023-02-17T12:26:05;95699.69;;;18.58;30.90
6030;BME280;3043;42.682;23.376;2023-02-17T12:36:56;95692.44;;;17.83;31.86
6030;BME280;3043;42.682;23.376;2023-02-17T12:39:45;95685.56;;;17.80;31.51
6030;BME280;3043;42.682;23.376;2023-02-17T12:44:52;95671.00;;;17.53;31.90
6030;BME280;3043;42.682;23.376;2023-02-17T12:47:26;95682.13;;;17.35;31.93
6030;BME280;3043;42.682;23.376;2023-02-17T12:50:02;95679.63;;;17.55;31.92
6030;BME280;3043;42.682;23.376;2023-02-17T12:52:32;95675.00;;;17.61;31.62
6030;BME280;3043;42.682;23.376;2023-02-17T12:55:15;95683.28;;;17.73;31.76
6030;BME280;3043;42.682;23.376;2023-02-17T12:58:01;95674.69;;;17.69;31.86
6030;BME280;3043;42.682;23.376;2023-02-17T13:03:03;95672.53;;;17.79;32.07
6030;BME280;3043;42.682;23.376;2023-02-17T13:05:57;95676.41;;;17.90;31.89
6030;BME280;3043;42.682;23.376;2023-02-17T13:11:05;95666.53;;;17.97;31.78
6030;BME280;3043;42.682;23.376;2023-02-17T13:13:33;95675.78;;;17.84;31.94
6030;BME280;3043;42.682;23.376;2023-02-17T13:16:10;95666.56;;;17.75;31.99
6030;BME280;3043;42.682;23.376;2023-02-17T13:18:41;95673.75;;;17.70;31.83
6030;BME280;3043;42.682;23.376;2023-02-17T13:21:26;95661.97;;;17.60;32.27
6030;BME280;3043;42.682;23.376;2023-02-17T13:24:04;95664.88;;;17.74;32.13
6030;BME280;3043;42.682;23.376;2023-02-17T13:26:35;95666.41;;;17.58;32.48
6030;BME280;3043;42.682;23.376;2023-02-17T13:29:15;95665.50;;;17.59;32.10
6030;BME280;3043;42.682;23.376;2023-02-17T13:31:51;95660.66;;;17.50;32.49
6030;BME280;3043;42.682;23.376;2023-02-17T13:34:43;95649.81;;;17.59;32.42
6030;BME280;3043;42.682;23.376;2023-02-17T13:37:23;95655.63;;;17.44;32.50
6030;BME280;3043;42.682;23.376;2023-02-17T13:39:49;95656.84;;;17.35;32.53
6030;BME280;3043;42.682;23.376;2023-02-17T13:42:37;95657.22;;;17.48;32.55
6030;BME280;3043;42.682;23.376;2023-02-17T13:45:17;95645.78;;;17.50;32.48
6030;BME280;3043;42.682;23.376;2023-02-17T13:47:45;95650.19;;;17.50;32.29
6030;BME280;3043;42.682;23.376;2023-02-17T13:50:32;95652.47;;;17.36;32.61
6030;BME280;3043;42.682;23.376;2023-02-17T13:53:00;95655.88;;;17.16;32.54
6030;BME280;3043;42.682;23.376;2023-02-17T13:55:26;95659.94;;;17.02;32.78
6030;BME280;3043;42.682;23.376;2023-02-17T13:57:54;95657.19;;;17.05;32.91
6030;BME280;3043;42.682;23.376;2023-02-17T14:00:25;95651.38;;;16.98;32.54
6030;BME280;3043;42.682;23.376;2023-02-17T14:02:55;95655.75;;;16.98;32.30
6030;BME280;3043;42.682;23.376;2023-02-17T14:08:03;95657.03;;;16.40;32.71
6030;BME280;3043;42.682;23.376;2023-02-17T14:10:29;95644.38;;;16.30;33.06
6030;BME280;3043;42.682;23.376;2023-02-17T14:12:55;95654.28;;;16.20;33.20
6030;BME280;3043;42.682;23.376;2023-02-17T14:15:24;95647.75;;;16.09;33.75
6030;BME280;3043;42.682;23.376;2023-02-17T14:17:50;95644.22;;;16.10;34.05
6030;BME280;3043;42.682;23.376;2023-02-17T14:20:33;95638.63;;;15.95;34.25
6030;BME280;3043;42.682;23.376;2023-02-17T14:25:31;95648.13;;;15.73;34.86
6030;BME280;3043;42.682;23.376;2023-02-17T14:27:57;95655.44;;;15.62;35.00
6030;BME280;3043;42.682;23.376;2023-02-17T14:30:33;95664.03;;;15.40;35.55
6030;BME280;3043;42.682;23.376;2023-02-17T14:33:17;95656.53;;;15.29;35.73
6030;BME280;3043;42.682;23.376;2023-02-17T14:38:26;95663.72;;;15.21;36.18
6030;BME280;3043;42.682;23.376;2023-02-17T14:40:53;95658.91;;;15.09;36.92
6030;BME280;3043;42.682;23.376;2023-02-17T14:43:20;95662.31;;;14.84;37.58
6030;BME280;3043;42.682;23.376;2023-02-17T14:45:46;95661.66;;;15.05;37.78
6030;BME280;3043;42.682;23.376;2023-02-17T14:48:12;95660.59;;;15.10;37.37